EGAA/BFS METAR and TAF weather

Enter ICAO airport designator
Station Type Date Time Source
EGAA METAR 2020/09/19 21:20 UTC NOAA

EGAA 192120Z 07003KT CAVOK 07/06 Q1024


Station Type Date Time Source
EGAA Decoded METAR 2020/09/19 21:20 UTC NOAA

Belfast / Aldergrove Airport, United Kingdom (EGAA) 54-39N 006-13W 0M
Sep 19, 2020 - 05:20 PM EDT / 2020.09.19 2120 UTC
Wind: from the ENE (070 degrees) at 3 MPH (3 KT):0
Visibility: greater than 7 mile(s):0
Temperature: 44 F (7 C)
Dew Point: 42 F (6 C)
Relative Humidity: 93%
Pressure (altimeter): 30.24 in. Hg (1024 hPa)
ob: EGAA 192120Z 07003KT CAVOK 07/06 Q1024
cycle: 21

Station Type Date Time Source
EGAA TAF 2020/09/19 18:09 UTC NOAA

TAF TAF EGAA 191659Z 1918/2018 07007KT 9999 FEW020 PROB40 2001/2010 BKN014 PROB30
TEMPO 2002/2007 8000

Example: see airport list